EW1179 Weather Reports


Display with metric or nautical units.
time (UTC)temp
F
wind
direction
speed
MPH
gust
MPH
rain 1hr
in
rain 24hr
in
rain mn
in
humidity
%
barometer
mb
20220626224516 91 306 2.0 11.0 0.00 0.00 0.00 18 1011.0
20220626223016 93 275 2.0 8.0 0.00 0.00 0.00 17 1011.2
20220626221507 92 306 2.0 10.0 0.00 0.00 0.00 18 1011.3
20220626220012 93 227 2.0 9.0 0.00 0.00 0.00 17 1011.3
20220626214513 95 198 1.0 7.0 0.00 0.00 0.00 19 1011.5
20220626213007 95 232 3.0 9.0 0.00 0.00 0.00 19 1011.7
20220626211503 96 262 1.0 9.0 0.00 0.00 0.00 20 1011.7
20220626210003 98 230 1.0 8.0 0.00 0.00 0.00 19 1011.9
20220626204502 98 238 1.0 7.0 0.00 0.00 0.00 18 1011.9
20220626203009 99 241 1.0 5.0 0.00 0.00 0.00 19 1011.9
20220626201503 101 211 0.0 3.0 0.00 0.00 0.00 18 1012.1
20220626200100 101 259 0.0 5.0 0.00 0.00 0.00 17 1012.2
20220626194558 100 265 2.0 6.0 0.00 0.00 0.00 15 1012.2
20220626193058 99 215 0.0 4.0 0.00 0.00 0.00 12 1012.4
20220626191550 98 251 0.0 3.0 0.00 0.00 0.00 9 1012.5
20220626190052 97 119 0.0 5.0 0.00 0.00 0.00 13 1012.6
20220626184542 96 98 0.0 3.0 0.00 0.00 0.00 16 1012.7
20220626183038 94 147 0.0 4.0 0.00 0.00 0.00 16 1012.8
20220626181534 92 63 0.0 2.0 0.00 0.00 0.00 16 1012.9
20220626180033 91 61 0.0 4.0 0.00 0.00 0.00 17 1013.1
20220626174535 90 197 0.0 3.0 0.00 0.00 0.00 17 1013.0
20220626173025 88 118 0.0 3.0 0.00 0.00 0.00 18 1013.1
20220626171516 87 58 0.0 4.0 0.00 0.00 0.00 19 1013.2
20220626170013 85 83 0.0 2.0 0.00 0.00 0.00 19 1013.3
20220626164507 82 90 0.0 3.0 0.00 0.00 0.00 20 1013.4
20220626163004 80 132 0.0 0.0 0.00 0.00 0.00 24 1013.5
20220626161604 77 165 0.0 0.0 0.00 0.00 0.00 27 1013.7
20220626160055 75 144 0.0 1.0 0.00 0.00 0.00 33 1013.6
20220626154550 73 139 0.0 2.0 0.00 0.00 0.00 37 1013.6
20220626153052 72 117 0.0 2.0 0.00 0.00 0.00 39 1013.5
20220626151549 69 110 0.0 0.0 0.00 0.00 0.00 42 1013.3
20220626150037 67 202 0.0 0.0 0.00 0.00 0.00 42 1013.4
20220626144533 64 125 0.0 0.0 0.00 0.00 0.00 45 1013.4
20220626143029 61 205 0.0 0.0 0.00 0.00 0.00 47 1013.2
20220626141525 58 307 0.0 0.0 0.00 0.00 0.00 52 1013.1
20220626140021 56 307 0.0 0.0 0.00 0.00 0.00 52 1013.1
20220626134518 55 307 0.0 0.0 0.00 0.00 0.00 52 1013.1
20220626133016 55 307 0.0 0.0 0.00 0.00 0.00 52 1013.0
20220626131515 55 307 0.0 0.0 0.00 0.00 0.00 53 1012.7
20220626130010 55 307 0.0 0.0 0.00 0.00 0.00 52 1012.7
20220626124509 56 307 0.0 0.0 0.00 0.00 0.00 52 1012.5
20220626123011 56 307 0.0 0.0 0.00 0.00 0.00 51 1012.5
20220626121504 56 273 0.0 0.0 0.00 0.00 0.00 50 1012.3
20220626120003 57 273 0.0 0.0 0.00 0.00 0.00 50 1012.2
20220626114501 57 273 0.0 0.0 0.00 0.00 0.00 50 1012.3
20220626113100 57 273 0.0 0.0 0.00 0.00 0.00 49 1012.2
20220626111604 58 290 0.0 0.0 0.00 0.00 0.00 49 1012.2
20220626110058 58 288 0.0 0.0 0.00 0.00 0.00 48 1012.0
20220626104606 58 288 0.0 0.0 0.00 0.00 0.00 49 1011.9
20220626103101 58 288 0.0 0.0 0.00 0.00 0.00 48 1012.0
20220626101550 59 288 0.0 0.0 0.00 0.00 0.00 47 1012.0
20220626100049 59 274 0.0 0.0 0.00 0.00 0.00 47 1012.0
20220626094547 60 274 0.0 0.0 0.00 0.00 0.00 46 1011.9
20220626093047 60 274 0.0 0.0 0.00 0.00 0.00 46 1011.8
20220626091547 60 274 0.0 0.0 0.00 0.00 0.00 46 1011.8
20220626090043 61 274 0.0 0.0 0.00 0.00 0.00 45 1011.8
20220626084549 61 274 0.0 0.0 0.00 0.00 0.00 45 1011.8
20220626083039 62 274 0.0 0.0 0.00 0.00 0.00 45 1012.0
20220626081537 62 274 0.0 0.0 0.00 0.00 0.00 44 1011.8
20220626080036 62 274 0.0 0.0 0.00 0.00 0.00 44 1011.9
20220626074533 63 274 0.0 0.0 0.00 0.00 0.00 43 1012.0
20220626073031 64 274 0.0 0.0 0.00 0.00 0.00 43 1011.8
20220626071528 64 274 0.0 0.0 0.00 0.00 0.00 42 1011.7
20220626070026 65 274 0.0 0.0 0.00 0.00 0.00 41 1011.7
20220626064532 65 274 0.0 0.0 0.00 0.00 0.00 41 1011.7
20220626063025 66 344 0.0 0.0 0.00 0.00 0.00 40 1011.7
20220626061528 66 262 0.0 0.0 0.00 0.00 0.00 40 1011.7
20220626060028 67 262 0.0 0.0 0.00 0.00 0.00 39 1011.6
20220626054528 68 346 0.0 0.0 0.00 0.00 0.00 39 1011.7
20220626053022 69 225 0.0 0.0 0.00 0.00 0.00 37 1011.6
20220626051520 70 244 0.0 0.0 0.00 0.00 0.00 37 1011.3
20220626050023 70 236 0.0 0.0 0.00 0.00 0.00 37 1011.0
20220626044517 72 296 0.0 0.0 0.00 0.00 0.00 35 1010.8
20220626043020 72 276 0.0 0.0 0.00 0.00 0.00 35 1010.6
20220626041516 74 267 0.0 0.0 0.00 0.00 0.00 32 1010.4
20220626040015 74 284 0.0 3.0 0.00 0.00 0.00 32 1010.3
20220626034514 75 233 0.0 2.0 0.00 0.00 0.00 31 1010.0
20220626033014 76 342 0.0 0.0 0.00 0.00 0.00 30 1009.9
20220626031514 77 165 0.0 1.0 0.00 0.00 0.00 31 1009.8
20220626030013 77 235 0.0 3.0 0.00 0.00 0.00 29 1009.7
20220626024511 78 349 0.0 1.0 0.00 0.00 0.00 28 1009.6
20220626023011 78 267 0.0 6.0 0.00 0.00 0.00 29 1009.3
20220626021511 78 215 0.0 4.0 0.00 0.00 0.00 30 1009.0
20220626020018 79 205 1.0 7.0 0.00 0.00 0.00 31 1008.9
20220626014508 79 311 1.0 7.0 0.00 0.00 0.00 31 1008.8
20220626013007 80 259 1.0 8.0 0.00 0.00 0.00 29 1008.5
20220626011507 81 242 1.0 10.0 0.00 0.00 0.00 28 1008.5
20220626010007 82 223 1.0 8.0 0.00 0.00 0.00 27 1008.3
20220626004506 83 300 2.0 21.0 0.00 0.00 0.00 27 1008.4
20220626003007 84 252 1.0 9.0 0.00 0.00 0.00 27 1008.4
20220626001505 84 263 1.0 10.0 0.00 0.00 0.00 28 1008.4
20220626000004 84 246 1.0 11.0 0.00 0.00 0.00 29 1008.4
20220625234502 84 263 2.0 10.0 0.00 0.00 0.00 29 1008.6
20220625233001 84 249 2.0 12.0 0.00 0.00 0.00 29 1008.6
20220625231503 84 268 3.0 11.0 0.00 0.00 0.00 28 1008.7
20220625230101 85 225 3.0 15.0 0.00 0.00 0.00 28 1008.7